sensor_id;sensor_type;location;lat;lon;timestamp;temperature;humidity
61392;DHT22;47261;52.892;5.738;2022-11-13T00:01:31;8.60;96.80
61392;DHT22;47261;52.892;5.738;2022-11-13T00:03:58;8.60;96.90
61392;DHT22;47261;52.892;5.738;2022-11-13T00:06:23;8.60;96.90
61392;DHT22;47261;52.892;5.738;2022-11-13T00:08:53;8.70;97.00
61392;DHT22;47261;52.892;5.738;2022-11-13T00:11:19;8.80;97.10
61392;DHT22;47261;52.892;5.738;2022-11-13T00:13:46;8.80;97.10
61392;DHT22;47261;52.892;5.738;2022-11-13T00:16:16;8.90;97.10
61392;DHT22;47261;52.892;5.738;2022-11-13T00:18:43;8.90;97.00
61392;DHT22;47261;52.892;5.738;2022-11-13T00:21:14;8.90;97.00
61392;DHT22;47261;52.892;5.738;2022-11-13T00:23:41;8.90;96.90
61392;DHT22;47261;52.892;5.738;2022-11-13T00:26:11;8.80;96.80
61392;DHT22;47261;52.892;5.738;2022-11-13T00:28:37;8.80;96.90
61392;DHT22;47261;52.892;5.738;2022-11-13T00:31:04;8.80;97.00
61392;DHT22;47261;52.892;5.738;2022-11-13T00:33:31;8.90;97.00
61392;DHT22;47261;52.892;5.738;2022-11-13T00:36:08;8.90;97.00
61392;DHT22;47261;52.892;5.738;2022-11-13T00:38:35;8.90;97.00
61392;DHT22;47261;52.892;5.738;2022-11-13T00:41:01;8.80;96.90
61392;DHT22;47261;52.892;5.738;2022-11-13T00:43:27;8.80;96.90
61392;DHT22;47261;52.892;5.738;2022-11-13T00:45:53;8.80;96.90
61392;DHT22;47261;52.892;5.738;2022-11-13T00:48:18;8.90;97.00
61392;DHT22;47261;52.892;5.738;2022-11-13T00:50:45;8.90;97.00
61392;DHT22;47261;52.892;5.738;2022-11-13T00:53:10;8.90;97.00
61392;DHT22;47261;52.892;5.738;2022-11-13T00:55:36;8.90;97.00
61392;DHT22;47261;52.892;5.738;2022-11-13T00:58:02;8.90;97.10
61392;DHT22;47261;52.892;5.738;2022-11-13T01:00:30;8.90;97.00
61392;DHT22;47261;52.892;5.738;2022-11-13T01:02:57;8.90;97.00
61392;DHT22;47261;52.892;5.738;2022-11-13T01:05:23;8.90;97.00
61392;DHT22;47261;52.892;5.738;2022-11-13T01:07:49;8.90;96.90
61392;DHT22;47261;52.892;5.738;2022-11-13T01:10:14;8.90;96.90
61392;DHT22;47261;52.892;5.738;2022-11-13T01:12:40;8.90;96.90
61392;DHT22;47261;52.892;5.738;2022-11-13T01:15:06;8.90;96.90
61392;DHT22;47261;52.892;5.738;2022-11-13T01:17:32;8.90;96.80
61392;DHT22;47261;52.892;5.738;2022-11-13T01:19:57;8.90;96.80
61392;DHT22;47261;52.892;5.738;2022-11-13T01:22:23;8.90;96.70
61392;DHT22;47261;52.892;5.738;2022-11-13T01:24:49;8.80;96.70
61392;DHT22;47261;52.892;5.738;2022-11-13T01:27:14;8.90;96.70
61392;DHT22;47261;52.892;5.738;2022-11-13T01:29:41;8.80;96.70
61392;DHT22;47261;52.892;5.738;2022-11-13T01:32:07;8.80;96.70
61392;DHT22;47261;52.892;5.738;2022-11-13T01:34:32;8.80;96.70
61392;DHT22;47261;52.892;5.738;2022-11-13T01:36:58;8.70;96.60
61392;DHT22;47261;52.892;5.738;2022-11-13T01:39:24;8.70;96.60
61392;DHT22;47261;52.892;5.738;2022-11-13T01:41:49;8.60;96.60
61392;DHT22;47261;52.892;5.738;2022-11-13T01:44:17;8.60;96.70
61392;DHT22;47261;52.892;5.738;2022-11-13T01:46:46;8.60;96.70
61392;DHT22;47261;52.892;5.738;2022-11-13T01:52:03;8.60;96.80
61392;DHT22;47261;52.892;5.738;2022-11-13T01:54:37;8.60;96.80
61392;DHT22;47261;52.892;5.738;2022-11-13T01:57:04;8.70;96.80
61392;DHT22;47261;52.892;5.738;2022-11-13T01:59:33;8.70;96.70
61392;DHT22;47261;52.892;5.738;2022-11-13T02:02:00;8.80;96.80
61392;DHT22;47261;52.892;5.738;2022-11-13T02:04:26;8.80;96.70
61392;DHT22;47261;52.892;5.738;2022-11-13T02:07:01;8.80;96.70
61392;DHT22;47261;52.892;5.738;2022-11-13T02:09:30;8.80;96.50
61392;DHT22;47261;52.892;5.738;2022-11-13T02:11:58;8.80;96.20
61392;DHT22;47261;52.892;5.738;2022-11-13T02:14:25;8.70;96.10
61392;DHT22;47261;52.892;5.738;2022-11-13T02:16:55;8.60;96.00
61392;DHT22;47261;52.892;5.738;2022-11-13T02:19:29;8.60;96.10
61392;DHT22;47261;52.892;5.738;2022-11-13T02:22:47;8.60;96.20
61392;DHT22;47261;52.892;5.738;2022-11-13T02:24:48;8.60;96.20
61392;DHT22;47261;52.892;5.738;2022-11-13T02:27:20;8.60;96.20
61392;DHT22;47261;52.892;5.738;2022-11-13T02:29:48;8.60;96.20
61392;DHT22;47261;52.892;5.738;2022-11-13T02:32:13;8.60;96.20
61392;DHT22;47261;52.892;5.738;2022-11-13T02:34:39;8.60;96.20
61392;DHT22;47261;52.892;5.738;2022-11-13T02:37:05;8.60;96.20
61392;DHT22;47261;52.892;5.738;2022-11-13T02:39:30;8.50;96.20
61392;DHT22;47261;52.892;5.738;2022-11-13T02:41:56;8.50;96.20
61392;DHT22;47261;52.892;5.738;2022-11-13T02:44:21;8.50;96.20
61392;DHT22;47261;52.892;5.738;2022-11-13T02:46:47;8.40;96.20
61392;DHT22;47261;52.892;5.738;2022-11-13T02:49:12;8.40;96.30
61392;DHT22;47261;52.892;5.738;2022-11-13T02:51:38;8.40;96.50
61392;DHT22;47261;52.892;5.738;2022-11-13T02:54:04;8.50;96.50
61392;DHT22;47261;52.892;5.738;2022-11-13T02:56:29;8.50;96.50
61392;DHT22;47261;52.892;5.738;2022-11-13T02:58:55;8.50;96.50
61392;DHT22;47261;52.892;5.738;2022-11-13T03:01:21;8.50;96.40
61392;DHT22;47261;52.892;5.738;2022-11-13T03:03:46;8.50;96.30
61392;DHT22;47261;52.892;5.738;2022-11-13T03:06:12;8.40;96.30
61392;DHT22;47261;52.892;5.738;2022-11-13T03:08:37;8.40;96.50
61392;DHT22;47261;52.892;5.738;2022-11-13T03:11:10;8.40;96.30
61392;DHT22;47261;52.892;5.738;2022-11-13T03:13:36;8.40;96.40
61392;DHT22;47261;52.892;5.738;2022-11-13T03:16:11;8.50;96.50
61392;DHT22;47261;52.892;5.738;2022-11-13T03:18:37;8.50;96.40
61392;DHT22;47261;52.892;5.738;2022-11-13T03:21:21;8.40;96.00
61392;DHT22;47261;52.892;5.738;2022-11-13T03:23:46;8.30;95.90
61392;DHT22;47261;52.892;5.738;2022-11-13T03:26:14;8.20;95.90
61392;DHT22;47261;52.892;5.738;2022-11-13T03:28:40;8.20;96.00
61392;DHT22;47261;52.892;5.738;2022-11-13T03:31:06;8.10;96.00
61392;DHT22;47261;52.892;5.738;2022-11-13T03:33:32;8.10;96.10
61392;DHT22;47261;52.892;5.738;2022-11-13T03:35:58;8.10;96.20
61392;DHT22;47261;52.892;5.738;2022-11-13T03:38:23;8.10;96.20
61392;DHT22;47261;52.892;5.738;2022-11-13T03:40:49;8.20;96.30
61392;DHT22;47261;52.892;5.738;2022-11-13T03:43:15;8.20;96.40
61392;DHT22;47261;52.892;5.738;2022-11-13T03:45:43;8.20;96.40
61392;DHT22;47261;52.892;5.738;2022-11-13T03:48:09;8.20;96.40
61392;DHT22;47261;52.892;5.738;2022-11-13T03:50:35;8.30;96.40
61392;DHT22;47261;52.892;5.738;2022-11-13T03:53:01;8.30;96.60
61392;DHT22;47261;52.892;5.738;2022-11-13T03:55:26;8.30;96.30
61392;DHT22;47261;52.892;5.738;2022-11-13T03:57:52;8.30;96.30
61392;DHT22;47261;52.892;5.738;2022-11-13T04:00:18;8.30;96.30
61392;DHT22;47261;52.892;5.738;2022-11-13T04:02:43;8.30;96.30
61392;DHT22;47261;52.892;5.738;2022-11-13T04:05:09;8.30;96.20
61392;DHT22;47261;52.892;5.738;2022-11-13T04:07:35;8.30;96.20
61392;DHT22;47261;52.892;5.738;2022-11-13T04:10:01;8.30;96.20
61392;DHT22;47261;52.892;5.738;2022-11-13T04:12:26;8.30;96.30
61392;DHT22;47261;52.892;5.738;2022-11-13T04:14:52;8.30;96.30
61392;DHT22;47261;52.892;5.738;2022-11-13T04:17:17;8.30;96.30
61392;DHT22;47261;52.892;5.738;2022-11-13T04:19:43;8.30;96.40
61392;DHT22;47261;52.892;5.738;2022-11-13T04:22:08;8.30;96.40
61392;DHT22;47261;52.892;5.738;2022-11-13T04:24:34;8.30;96.40
61392;DHT22;47261;52.892;5.738;2022-11-13T04:27:00;8.30;96.40
61392;DHT22;47261;52.892;5.738;2022-11-13T04:29:25;8.30;96.30
61392;DHT22;47261;52.892;5.738;2022-11-13T04:31:51;8.30;96.40
61392;DHT22;47261;52.892;5.738;2022-11-13T04:34:16;8.30;96.40
61392;DHT22;47261;52.892;5.738;2022-11-13T04:36:42;8.20;96.40
61392;DHT22;47261;52.892;5.738;2022-11-13T04:39:08;8.30;96.40
61392;DHT22;47261;52.892;5.738;2022-11-13T04:41:33;8.30;96.40
61392;DHT22;47261;52.892;5.738;2022-11-13T04:44:17;8.20;96.40
61392;DHT22;47261;52.892;5.738;2022-11-13T04:46:43;8.20;96.40
61392;DHT22;47261;52.892;5.738;2022-11-13T04:49:08;8.20;96.40
61392;DHT22;47261;52.892;5.738;2022-11-13T04:51:34;8.30;96.40
61392;DHT22;47261;52.892;5.738;2022-11-13T04:54:00;8.30;96.40
61392;DHT22;47261;52.892;5.738;2022-11-13T04:56:25;8.30;96.40
61392;DHT22;47261;52.892;5.738;2022-11-13T04:58:51;8.20;96.30
61392;DHT22;47261;52.892;5.738;2022-11-13T05:01:17;8.20;96.40
61392;DHT22;47261;52.892;5.738;2022-11-13T05:03:43;8.20;96.30
61392;DHT22;47261;52.892;5.738;2022-11-13T05:06:09;8.20;96.40
61392;DHT22;47261;52.892;5.738;2022-11-13T05:08:35;8.20;96.30
61392;DHT22;47261;52.892;5.738;2022-11-13T05:11:01;8.20;96.40
61392;DHT22;47261;52.892;5.738;2022-11-13T05:13:31;8.20;96.40
61392;DHT22;47261;52.892;5.738;2022-11-13T05:16:02;8.20;96.40
61392;DHT22;47261;52.892;5.738;2022-11-13T05:18:28;8.20;96.50
61392;DHT22;47261;52.892;5.738;2022-11-13T05:20:54;8.30;96.50
61392;DHT22;47261;52.892;5.738;2022-11-13T05:23:19;8.30;96.50
61392;DHT22;47261;52.892;5.738;2022-11-13T05:25:45;8.30;96.50
61392;DHT22;47261;52.892;5.738;2022-11-13T05:28:10;8.30;96.50
61392;DHT22;47261;52.892;5.738;2022-11-13T05:30:36;8.30;96.50
61392;DHT22;47261;52.892;5.738;2022-11-13T05:33:02;8.30;96.50
61392;DHT22;47261;52.892;5.738;2022-11-13T05:35:27;8.30;96.50
61392;DHT22;47261;52.892;5.738;2022-11-13T05:37:53;8.30;96.50
61392;DHT22;47261;52.892;5.738;2022-11-13T05:40:18;8.30;96.50
61392;DHT22;47261;52.892;5.738;2022-11-13T05:42:44;8.30;96.50
61392;DHT22;47261;52.892;5.738;2022-11-13T05:45:09;8.40;96.50
61392;DHT22;47261;52.892;5.738;2022-11-13T05:47:35;8.30;96.40
61392;DHT22;47261;52.892;5.738;2022-11-13T05:50:01;8.30;96.40
61392;DHT22;47261;52.892;5.738;2022-11-13T05:52:26;8.30;96.30
61392;DHT22;47261;52.892;5.738;2022-11-13T05:54:52;8.30;96.30
61392;DHT22;47261;52.892;5.738;2022-11-13T05:57:17;8.30;96.30
61392;DHT22;47261;52.892;5.738;2022-11-13T05:59:43;8.30;96.30
61392;DHT22;47261;52.892;5.738;2022-11-13T06:02:09;8.30;96.30
61392;DHT22;47261;52.892;5.738;2022-11-13T06:04:34;8.30;96.30
61392;DHT22;47261;52.892;5.738;2022-11-13T06:07:00;8.30;96.30
61392;DHT22;47261;52.892;5.738;2022-11-13T06:09:26;8.30;96.30
61392;DHT22;47261;52.892;5.738;2022-11-13T06:11:51;8.30;96.30
61392;DHT22;47261;52.892;5.738;2022-11-13T06:14:17;8.20;96.30
61392;DHT22;47261;52.892;5.738;2022-11-13T06:16:42;8.20;96.30
61392;DHT22;47261;52.892;5.738;2022-11-13T06:19:09;8.20;96.30
61392;DHT22;47261;52.892;5.738;2022-11-13T06:21:38;8.20;96.30
61392;DHT22;47261;52.892;5.738;2022-11-13T06:24:04;8.20;96.40
61392;DHT22;47261;52.892;5.738;2022-11-13T06:26:32;8.20;96.40
61392;DHT22;47261;52.892;5.738;2022-11-13T06:28:59;8.20;96.50
61392;DHT22;47261;52.892;5.738;2022-11-13T06:31:30;8.20;96.40
61392;DHT22;47261;52.892;5.738;2022-11-13T06:33:56;8.20;96.50
61392;DHT22;47261;52.892;5.738;2022-11-13T06:36:25;8.20;96.50
61392;DHT22;47261;52.892;5.738;2022-11-13T06:38:51;8.20;96.50
61392;DHT22;47261;52.892;5.738;2022-11-13T06:41:21;8.20;96.50
61392;DHT22;47261;52.892;5.738;2022-11-13T06:43:47;8.20;96.50
61392;DHT22;47261;52.892;5.738;2022-11-13T06:46:18;8.20;96.50
61392;DHT22;47261;52.892;5.738;2022-11-13T06:48:44;8.10;96.50
61392;DHT22;47261;52.892;5.738;2022-11-13T06:51:22;8.20;96.50
61392;DHT22;47261;52.892;5.738;2022-11-13T06:53:49;8.20;96.50
61392;DHT22;47261;52.892;5.738;2022-11-13T06:56:15;8.20;96.50
61392;DHT22;47261;52.892;5.738;2022-11-13T06:58:41;8.10;96.50
61392;DHT22;47261;52.892;5.738;2022-11-13T07:01:16;8.10;96.50
61392;DHT22;47261;52.892;5.738;2022-11-13T07:03:43;8.10;96.50
61392;DHT22;47261;52.892;5.738;2022-11-13T07:06:17;8.10;96.50
61392;DHT22;47261;52.892;5.738;2022-11-13T07:08:44;8.10;96.50
61392;DHT22;47261;52.892;5.738;2022-11-13T07:11:13;8.10;96.50
61392;DHT22;47261;52.892;5.738;2022-11-13T07:13:39;8.20;96.60
61392;DHT22;47261;52.892;5.738;2022-11-13T07:16:06;8.20;96.60
61392;DHT22;47261;52.892;5.738;2022-11-13T07:18:33;8.20;96.60
61392;DHT22;47261;52.892;5.738;2022-11-13T07:21:05;8.20;96.60
61392;DHT22;47261;52.892;5.738;2022-11-13T07:23:31;8.30;96.60
61392;DHT22;47261;52.892;5.738;2022-11-13T07:25:57;8.30;96.60
61392;DHT22;47261;52.892;5.738;2022-11-13T07:28:22;8.40;96.60
61392;DHT22;47261;52.892;5.738;2022-11-13T07:30:48;8.40;96.50
61392;DHT22;47261;52.892;5.738;2022-11-13T07:33:14;8.40;96.50
61392;DHT22;47261;52.892;5.738;2022-11-13T07:35:39;8.40;96.50
61392;DHT22;47261;52.892;5.738;2022-11-13T07:38:05;8.50;96.50
61392;DHT22;47261;52.892;5.738;2022-11-13T07:40:30;8.50;96.50
61392;DHT22;47261;52.892;5.738;2022-11-13T07:43:00;8.50;96.50
61392;DHT22;47261;52.892;5.738;2022-11-13T07:45:27;8.50;96.50
61392;DHT22;47261;52.892;5.738;2022-11-13T07:48:00;8.60;96.50
61392;DHT22;47261;52.892;5.738;2022-11-13T07:50:32;8.60;96.50
61392;DHT22;47261;52.892;5.738;2022-11-13T07:52:59;8.70;96.50
61392;DHT22;47261;52.892;5.738;2022-11-13T07:55:26;8.80;96.70
61392;DHT22;47261;52.892;5.738;2022-11-13T07:57:57;8.90;96.50
61392;DHT22;47261;52.892;5.738;2022-11-13T08:00:27;8.90;96.40
61392;DHT22;47261;52.892;5.738;2022-11-13T08:02:53;9.00;96.50
61392;DHT22;47261;52.892;5.738;2022-11-13T08:05:20;9.10;96.70
61392;DHT22;47261;52.892;5.738;2022-11-13T08:07:46;9.20;96.90
61392;DHT22;47261;52.892;5.738;2022-11-13T08:10:13;9.30;97.20
61392;DHT22;47261;52.892;5.738;2022-11-13T08:12:38;9.40;97.10
61392;DHT22;47261;52.892;5.738;2022-11-13T08:15:04;9.50;97.10
61392;DHT22;47261;52.892;5.738;2022-11-13T08:17:30;9.70;97.10
61392;DHT22;47261;52.892;5.738;2022-11-13T08:19:56;9.80;97.10
61392;DHT22;47261;52.892;5.738;2022-11-13T08:22:21;10.00;97.00
61392;DHT22;47261;52.892;5.738;2022-11-13T08:24:47;10.10;96.90
61392;DHT22;47261;52.892;5.738;2022-11-13T08:27:12;10.20;96.80
61392;DHT22;47261;52.892;5.738;2022-11-13T08:29:38;10.40;96.70
61392;DHT22;47261;52.892;5.738;2022-11-13T08:32:04;10.50;96.50
61392;DHT22;47261;52.892;5.738;2022-11-13T08:34:29;10.60;96.40
61392;DHT22;47261;52.892;5.738;2022-11-13T08:36:55;10.70;96.20
61392;DHT22;47261;52.892;5.738;2022-11-13T08:39:21;10.90;96.20
61392;DHT22;47261;52.892;5.738;2022-11-13T08:41:46;11.00;96.00
61392;DHT22;47261;52.892;5.738;2022-11-13T08:44:12;11.10;95.90
61392;DHT22;47261;52.892;5.738;2022-11-13T08:46:39;11.10;95.70
61392;DHT22;47261;52.892;5.738;2022-11-13T08:49:04;11.20;95.50
61392;DHT22;47261;52.892;5.738;2022-11-13T08:51:30;11.30;95.30
61392;DHT22;47261;52.892;5.738;2022-11-13T08:53:56;11.30;95.10
61392;DHT22;47261;52.892;5.738;2022-11-13T08:56:21;11.40;94.90
61392;DHT22;47261;52.892;5.738;2022-11-13T08:58:47;11.40;94.60
61392;DHT22;47261;52.892;5.738;2022-11-13T09:01:12;11.50;94.40
61392;DHT22;47261;52.892;5.738;2022-11-13T09:03:38;11.50;94.20
61392;DHT22;47261;52.892;5.738;2022-11-13T09:06:07;11.50;94.10
61392;DHT22;47261;52.892;5.738;2022-11-13T09:08:34;11.50;93.90
61392;DHT22;47261;52.892;5.738;2022-11-13T09:11:04;11.50;93.80
61392;DHT22;47261;52.892;5.738;2022-11-13T09:13:31;11.40;93.60
61392;DHT22;47261;52.892;5.738;2022-11-13T09:15:58;11.40;93.60
61392;DHT22;47261;52.892;5.738;2022-11-13T09:18:24;11.40;93.50
61392;DHT22;47261;52.892;5.738;2022-11-13T09:20:50;11.40;93.50
61392;DHT22;47261;52.892;5.738;2022-11-13T09:23:15;11.40;93.50
61392;DHT22;47261;52.892;5.738;2022-11-13T09:25:41;11.50;93.50
61392;DHT22;47261;52.892;5.738;2022-11-13T09:28:06;11.40;93.50
61392;DHT22;47261;52.892;5.738;2022-11-13T09:30:35;11.50;93.60
61392;DHT22;47261;52.892;5.738;2022-11-13T09:33:02;11.50;93.50
61392;DHT22;47261;52.892;5.738;2022-11-13T09:35:29;11.50;93.30
61392;DHT22;47261;52.892;5.738;2022-11-13T09:38:10;11.50;93.20
61392;DHT22;47261;52.892;5.738;2022-11-13T09:49:24;11.50;92.90
61392;DHT22;47261;52.892;5.738;2022-11-13T09:51:55;11.60;93.00
61392;DHT22;47261;52.892;5.738;2022-11-13T09:54:22;11.50;92.90
61392;DHT22;47261;52.892;5.738;2022-11-13T09:57:13;11.50;93.00
61392;DHT22;47261;52.892;5.738;2022-11-13T10:00:03;11.50;93.00
61392;DHT22;47261;52.892;5.738;2022-11-13T10:05:23;11.60;93.10
61392;DHT22;47261;52.892;5.738;2022-11-13T10:13:16;11.80;93.20
61392;DHT22;47261;52.892;5.738;2022-11-13T10:15:44;11.80;93.30
61392;DHT22;47261;52.892;5.738;2022-11-13T10:18:24;11.90;93.40
61392;DHT22;47261;52.892;5.738;2022-11-13T10:20:54;12.00;93.30
61392;DHT22;47261;52.892;5.738;2022-11-13T10:23:28;12.10;93.30
61392;DHT22;47261;52.892;5.738;2022-11-13T10:26:03;12.20;93.10
61392;DHT22;47261;52.892;5.738;2022-11-13T10:28:31;12.30;93.10
61392;DHT22;47261;52.892;5.738;2022-11-13T10:30:57;12.40;93.10
61392;DHT22;47261;52.892;5.738;2022-11-13T10:33:23;12.40;93.00
61392;DHT22;47261;52.892;5.738;2022-11-13T10:36:13;12.50;92.90
61392;DHT22;47261;52.892;5.738;2022-11-13T10:38:52;12.60;92.70
61392;DHT22;47261;52.892;5.738;2022-11-13T10:41:20;12.70;92.70
61392;DHT22;47261;52.892;5.738;2022-11-13T10:46:33;12.80;92.40
61392;DHT22;47261;52.892;5.738;2022-11-13T10:49:17;12.80;92.10
61392;DHT22;47261;52.892;5.738;2022-11-13T10:51:43;12.80;92.20
61392;DHT22;47261;52.892;5.738;2022-11-13T10:54:35;12.90;92.30
61392;DHT22;47261;52.892;5.738;2022-11-13T10:57:02;13.00;92.00
61392;DHT22;47261;52.892;5.738;2022-11-13T10:59:40;13.00;92.00
61392;DHT22;47261;52.892;5.738;2022-11-13T11:04:41;13.10;91.70
61392;DHT22;47261;52.892;5.738;2022-11-13T11:07:21;13.20;91.70
61392;DHT22;47261;52.892;5.738;2022-11-13T11:09:49;13.20;91.50
61392;DHT22;47261;52.892;5.738;2022-11-13T11:12:20;13.30;91.60
61392;DHT22;47261;52.892;5.738;2022-11-13T11:22:40;13.40;91.30
61392;DHT22;47261;52.892;5.738;2022-11-13T11:25:11;13.40;91.10
61392;DHT22;47261;52.892;5.738;2022-11-13T11:28:06;13.50;91.10
61392;DHT22;47261;52.892;5.738;2022-11-13T11:30:41;13.50;90.80
61392;DHT22;47261;52.892;5.738;2022-11-13T11:33:25;13.60;90.90
61392;DHT22;47261;52.892;5.738;2022-11-13T11:41:13;13.70;90.40
61392;DHT22;47261;52.892;5.738;2022-11-13T11:43:45;13.80;90.30
61392;DHT22;47261;52.892;5.738;2022-11-13T11:46:13;13.80;90.00
61392;DHT22;47261;52.892;5.738;2022-11-13T11:48:39;14.00;90.00
61392;DHT22;47261;52.892;5.738;2022-11-13T12:13:05;14.60;89.50
61392;DHT22;47261;52.892;5.738;2022-11-13T12:20:55;14.70;89.90
61392;DHT22;47261;52.892;5.738;2022-11-13T12:23:57;14.70;89.50
61392;DHT22;47261;52.892;5.738;2022-11-13T12:29:15;14.80;89.50
61392;DHT22;47261;52.892;5.738;2022-11-13T12:31:57;14.90;89.20
61392;DHT22;47261;52.892;5.738;2022-11-13T12:34:44;15.00;89.50
61392;DHT22;47261;52.892;5.738;2022-11-13T12:37:20;15.10;88.90
61392;DHT22;47261;52.892;5.738;2022-11-13T12:39:57;15.20;89.20
61392;DHT22;47261;52.892;5.738;2022-11-13T12:42:51;15.40;89.30
61392;DHT22;47261;52.892;5.738;2022-11-13T12:45:45;15.60;89.50
61392;DHT22;47261;52.892;5.738;2022-11-13T12:50:59;15.90;88.90
61392;DHT22;47261;52.892;5.738;2022-11-13T12:53:27;16.10;87.70
61392;DHT22;47261;52.892;5.738;2022-11-13T12:55:59;16.20;88.10
61392;DHT22;47261;52.892;5.738;2022-11-13T12:58:28;16.20;86.80
61392;DHT22;47261;52.892;5.738;2022-11-13T13:01:15;16.20;86.60
61392;DHT22;47261;52.892;5.738;2022-11-13T13:09:31;16.30;84.90
61392;DHT22;47261;52.892;5.738;2022-11-13T13:12:10;16.40;84.70
61392;DHT22;47261;52.892;5.738;2022-11-13T13:17:30;16.40;84.10
61392;DHT22;47261;52.892;5.738;2022-11-13T13:20:04;16.40;84.50
61392;DHT22;47261;52.892;5.738;2022-11-13T13:22:33;16.40;84.00
61392;DHT22;47261;52.892;5.738;2022-11-13T13:25:05;16.40;83.70
61392;DHT22;47261;52.892;5.738;2022-11-13T13:27:40;16.40;83.30
61392;DHT22;47261;52.892;5.738;2022-11-13T13:30:18;16.30;83.10
61392;DHT22;47261;52.892;5.738;2022-11-13T13:33:12;16.30;83.00
61392;DHT22;47261;52.892;5.738;2022-11-13T13:38:18;16.20;83.20
61392;DHT22;47261;52.892;5.738;2022-11-13T13:48:25;16.20;83.50
61392;DHT22;47261;52.892;5.738;2022-11-13T13:50:52;16.30;83.40
61392;DHT22;47261;52.892;5.738;2022-11-13T13:53:25;16.30;83.40
61392;DHT22;47261;52.892;5.738;2022-11-13T13:55:54;16.30;83.20
61392;DHT22;47261;52.892;5.738;2022-11-13T13:58:28;16.20;82.90
61392;DHT22;47261;52.892;5.738;2022-11-13T14:01:01;16.10;82.50
61392;DHT22;47261;52.892;5.738;2022-11-13T14:03:27;16.00;82.60
61392;DHT22;47261;52.892;5.738;2022-11-13T14:05:54;15.80;82.70
61392;DHT22;47261;52.892;5.738;2022-11-13T14:08:22;15.70;82.80
61392;DHT22;47261;52.892;5.738;2022-11-13T14:10:49;15.50;83.50
61392;DHT22;47261;52.892;5.738;2022-11-13T14:13:27;15.40;83.10
61392;DHT22;47261;52.892;5.738;2022-11-13T14:16:04;15.30;83.00
61392;DHT22;47261;52.892;5.738;2022-11-13T14:18:30;15.10;83.20
61392;DHT22;47261;52.892;5.738;2022-11-13T14:20:58;15.00;83.50
61392;DHT22;47261;52.892;5.738;2022-11-13T14:23:38;14.90;83.70
61392;DHT22;47261;52.892;5.738;2022-11-13T14:26:05;14.80;83.80
61392;DHT22;47261;52.892;5.738;2022-11-13T14:28:33;14.80;84.00
61392;DHT22;47261;52.892;5.738;2022-11-13T14:31:05;14.70;84.10
61392;DHT22;47261;52.892;5.738;2022-11-13T14:33:34;14.60;84.10
61392;DHT22;47261;52.892;5.738;2022-11-13T14:36:01;14.50;84.30
61392;DHT22;47261;52.892;5.738;2022-11-13T14:38:33;14.40;84.70
61392;DHT22;47261;52.892;5.738;2022-11-13T14:41:00;14.40;85.20
61392;DHT22;47261;52.892;5.738;2022-11-13T14:43:31;14.40;85.90
61392;DHT22;47261;52.892;5.738;2022-11-13T14:46:02;14.50;86.70
61392;DHT22;47261;52.892;5.738;2022-11-13T14:48:32;14.60;87.60
61392;DHT22;47261;52.892;5.738;2022-11-13T14:51:00;14.70;88.10
61392;DHT22;47261;52.892;5.738;2022-11-13T14:53:38;14.90;88.50
61392;DHT22;47261;52.892;5.738;2022-11-13T14:58:38;15.10;88.60
61392;DHT22;47261;52.892;5.738;2022-11-13T15:01:18;15.20;87.90
61392;DHT22;47261;52.892;5.738;2022-11-13T15:03:45;15.30;87.30
61392;DHT22;47261;52.892;5.738;2022-11-13T15:06:23;15.20;87.10
61392;DHT22;47261;52.892;5.738;2022-11-13T15:08:52;15.20;86.60
61392;DHT22;47261;52.892;5.738;2022-11-13T15:11:20;15.10;86.50
61392;DHT22;47261;52.892;5.738;2022-11-13T15:13:46;15.00;86.10
61392;DHT22;47261;52.892;5.738;2022-11-13T15:16:17;14.90;85.80
61392;DHT22;47261;52.892;5.738;2022-11-13T15:18:49;14.80;85.50
61392;DHT22;47261;52.892;5.738;2022-11-13T15:21:16;14.60;85.30
61392;DHT22;47261;52.892;5.738;2022-11-13T15:23:42;14.50;85.30
61392;DHT22;47261;52.892;5.738;2022-11-13T15:26:12;14.40;85.40
61392;DHT22;47261;52.892;5.738;2022-11-13T15:28:38;14.30;85.50
61392;DHT22;47261;52.892;5.738;2022-11-13T15:31:20;14.20;85.70
61392;DHT22;47261;52.892;5.738;2022-11-13T15:33:46;14.00;85.70
61392;DHT22;47261;52.892;5.738;2022-11-13T15:36:12;13.90;85.80
61392;DHT22;47261;52.892;5.738;2022-11-13T15:38:38;13.80;86.10
61392;DHT22;47261;52.892;5.738;2022-11-13T15:41:15;13.60;86.20
61392;DHT22;47261;52.892;5.738;2022-11-13T15:43:45;13.50;86.40
61392;DHT22;47261;52.892;5.738;2022-11-13T15:46:16;13.30;86.50
61392;DHT22;47261;52.892;5.738;2022-11-13T15:48:43;13.20;87.10
61392;DHT22;47261;52.892;5.738;2022-11-13T15:53:52;13.00;86.90
61392;DHT22;47261;52.892;5.738;2022-11-13T15:56:18;12.90;86.80
61392;DHT22;47261;52.892;5.738;2022-11-13T15:58:44;12.80;86.90
61392;DHT22;47261;52.892;5.738;2022-11-13T16:01:13;12.70;87.00
61392;DHT22;47261;52.892;5.738;2022-11-13T16:03:39;12.70;87.00
61392;DHT22;47261;52.892;5.738;2022-11-13T16:06:09;12.60;87.00
61392;DHT22;47261;52.892;5.738;2022-11-13T16:08:36;12.50;87.00
61392;DHT22;47261;52.892;5.738;2022-11-13T16:11:01;12.40;87.10
61392;DHT22;47261;52.892;5.738;2022-11-13T16:13:27;12.30;87.40
61392;DHT22;47261;52.892;5.738;2022-11-13T16:15:53;12.20;87.40
61392;DHT22;47261;52.892;5.738;2022-11-13T16:18:27;12.10;87.60
61392;DHT22;47261;52.892;5.738;2022-11-13T16:20:53;12.00;87.80
61392;DHT22;47261;52.892;5.738;2022-11-13T16:23:19;11.90;87.80
61392;DHT22;47261;52.892;5.738;2022-11-13T16:25:47;11.90;87.90
61392;DHT22;47261;52.892;5.738;2022-11-13T16:28:17;11.80;88.00
61392;DHT22;47261;52.892;5.738;2022-11-13T16:30:44;11.80;88.30
61392;DHT22;47261;52.892;5.738;2022-11-13T16:33:10;11.70;88.50
61392;DHT22;47261;52.892;5.738;2022-11-13T16:35:36;11.60;88.70
61392;DHT22;47261;52.892;5.738;2022-11-13T16:38:04;11.60;88.90
61392;DHT22;47261;52.892;5.738;2022-11-13T16:40:34;11.50;89.10
61392;DHT22;47261;52.892;5.738;2022-11-13T16:42:59;11.50;89.30
61392;DHT22;47261;52.892;5.738;2022-11-13T16:45:25;11.40;89.50
61392;DHT22;47261;52.892;5.738;2022-11-13T16:47:50;11.40;89.60
61392;DHT22;47261;52.892;5.738;2022-11-13T16:50:22;11.40;89.70
61392;DHT22;47261;52.892;5.738;2022-11-13T16:52:49;11.40;89.90
61392;DHT22;47261;52.892;5.738;2022-11-13T16:55:14;11.40;89.90
61392;DHT22;47261;52.892;5.738;2022-11-13T16:57:40;11.40;90.00
61392;DHT22;47261;52.892;5.738;2022-11-13T17:00:09;11.30;90.00
61392;DHT22;47261;52.892;5.738;2022-11-13T17:02:36;11.20;90.00
61392;DHT22;47261;52.892;5.738;2022-11-13T17:05:03;11.20;90.10
61392;DHT22;47261;52.892;5.738;2022-11-13T17:07:29;11.10;90.10
61392;DHT22;47261;52.892;5.738;2022-11-13T17:09:55;11.00;90.30
61392;DHT22;47261;52.892;5.738;2022-11-13T17:12:20;11.00;90.40
61392;DHT22;47261;52.892;5.738;2022-11-13T17:14:46;10.90;90.50
61392;DHT22;47261;52.892;5.738;2022-11-13T17:17:12;10.90;90.50
61392;DHT22;47261;52.892;5.738;2022-11-13T17:19:40;10.90;90.60
61392;DHT22;47261;52.892;5.738;2022-11-13T17:22:09;10.80;90.70
61392;DHT22;47261;52.892;5.738;2022-11-13T17:24:36;10.80;90.80